Terminal Aerodrome Forecast
Issued by NWS

Home | Current Version | Previous Version | Text Only | Print | Product List | Glossary On
Versions: 1 2 3 4 5 6 7 8 9 10 11 12 13
000
FTUS44 KJAN 231120
TAFGTR
TAF
KGTR 231120Z 2312/2412 30009KT P6SM BKN008 OVC025
     FM231500 31010G21KT P6SM BKN015 OVC025
     FM240200 33009KT P6SM BKN015 OVC025
     FM240800 33007KT P6SM FEW015 SCT250=

USA.gov is the U.S. government's official web portal to all federal, state and local government web resources and services.